sensor_id;sensor_type;location;lat;lon;timestamp;pressure;altitude;pressure_sealevel;temperature;humidity
21236;BME280;10775;42.678;26.324;2024-03-23T00:55:55;98830.63;;;4.60;93.85
21236;BME280;10775;42.678;26.324;2024-03-23T00:58:20;98834.09;;;4.61;93.92
21236;BME280;10775;42.678;26.324;2024-03-23T01:00:46;98825.41;;;4.54;89.71
21236;BME280;10775;42.678;26.324;2024-03-23T01:03:11;98815.06;;;4.55;91.29
21236;BME280;10775;42.678;26.324;2024-03-23T01:05:37;98812.44;;;4.48;90.92
21236;BME280;10775;42.678;26.324;2024-03-23T01:08:02;98814.13;;;4.44;89.15
21236;BME280;10775;42.678;26.324;2024-03-23T01:10:28;98812.34;;;4.35;89.95
21236;BME280;10775;42.678;26.324;2024-03-23T01:12:53;98817.41;;;4.22;90.43
21236;BME280;10775;42.678;26.324;2024-03-23T01:15:19;98810.53;;;4.25;91.47
21236;BME280;10775;42.678;26.324;2024-03-23T01:17:44;98811.50;;;4.40;95.42
21236;BME280;10775;42.678;26.324;2024-03-23T01:20:09;98808.94;;;4.43;93.68
21236;BME280;10775;42.678;26.324;2024-03-23T01:22:35;98811.53;;;4.47;91.73
21236;BME280;10775;42.678;26.324;2024-03-23T01:25:01;98808.09;;;4.50;94.76
21236;BME280;10775;42.678;26.324;2024-03-23T01:27:26;98809.81;;;4.46;90.55
21236;BME280;10775;42.678;26.324;2024-03-23T01:29:51;98804.63;;;4.43;92.56
21236;BME280;10775;42.678;26.324;2024-03-23T01:32:18;98798.56;;;4.38;93.80
21236;BME280;10775;42.678;26.324;2024-03-23T01:34:44;98802.00;;;4.35;93.14
21236;BME280;10775;42.678;26.324;2024-03-23T01:37:09;98803.69;;;4.30;91.70
21236;BME280;10775;42.678;26.324;2024-03-23T01:39:35;98800.16;;;4.24;91.81
21236;BME280;10775;42.678;26.324;2024-03-23T01:42:00;98799.25;;;4.19;92.25
21236;BME280;10775;42.678;26.324;2024-03-23T01:44:25;98792.47;;;4.31;94.73
21236;BME280;10775;42.678;26.324;2024-03-23T01:46:51;98795.09;;;4.39;96.25
21236;BME280;10775;42.678;26.324;2024-03-23T01:49:17;98795.94;;;4.36;91.16
21236;BME280;10775;42.678;26.324;2024-03-23T01:51:43;98797.72;;;4.41;94.66
21236;BME280;10775;42.678;26.324;2024-03-23T01:54:09;98797.66;;;4.36;92.21
21236;BME280;10775;42.678;26.324;2024-03-23T01:56:35;98792.53;;;4.38;93.74
21236;BME280;10775;42.678;26.324;2024-03-23T01:59:04;98798.50;;;4.33;91.26
21236;BME280;10775;42.678;26.324;2024-03-23T02:01:30;98794.16;;;4.26;92.07
21236;BME280;10775;42.678;26.324;2024-03-23T02:03:57;98805.38;;;4.28;90.73
21236;BME280;10775;42.678;26.324;2024-03-23T02:06:24;98794.16;;;4.26;91.36
21236;BME280;10775;42.678;26.324;2024-03-23T02:08:50;98795.91;;;4.30;91.54
21236;BME280;10775;42.678;26.324;2024-03-23T02:11:15;98799.28;;;4.20;91.37
21236;BME280;10775;42.678;26.324;2024-03-23T02:13:41;98801.84;;;4.16;91.74
21236;BME280;10775;42.678;26.324;2024-03-23T02:16:06;98794.09;;;4.17;94.70
21236;BME280;10775;42.678;26.324;2024-03-23T02:18:35;98789.88;;;4.30;95.10
21236;BME280;10775;42.678;26.324;2024-03-23T02:21:00;98798.47;;;4.29;96.60
21236;BME280;10775;42.678;26.324;2024-03-23T02:23:26;98800.22;;;4.31;94.34
21236;BME280;10775;42.678;26.324;2024-03-23T02:25:51;98795.94;;;4.35;96.29
21236;BME280;10775;42.678;26.324;2024-03-23T02:28:18;98797.66;;;4.34;91.53
21236;BME280;10775;42.678;26.324;2024-03-23T02:30:44;98792.47;;;4.33;93.13
21236;BME280;10775;42.678;26.324;2024-03-23T02:33:10;98802.88;;;4.41;96.46
21236;BME280;10775;42.678;26.324;2024-03-23T02:35:35;98798.59;;;4.44;96.42
21236;BME280;10775;42.678;26.324;2024-03-23T02:38:00;98807.31;;;4.55;99.54
21236;BME280;10775;42.678;26.324;2024-03-23T02:40:27;98797.88;;;4.68;100.00
21236;BME280;10775;42.678;26.324;2024-03-23T02:42:53;98803.06;;;4.73;100.00
21236;BME280;10775;42.678;26.324;2024-03-23T02:45:18;98805.66;;;4.68;99.16
21236;BME280;10775;42.678;26.324;2024-03-23T02:47:44;98805.66;;;4.68;100.00
21236;BME280;10775;42.678;26.324;2024-03-23T02:50:09;98804.78;;;4.72;100.00
21236;BME280;10775;42.678;26.324;2024-03-23T02:52:35;98806.47;;;4.61;95.63
21236;BME280;10775;42.678;26.324;2024-03-23T02:55:01;98810.75;;;4.57;96.63
21236;BME280;10775;42.678;26.324;2024-03-23T02:57:30;98804.72;;;4.58;100.00
21236;BME280;10775;42.678;26.324;2024-03-23T02:59:55;98802.19;;;4.66;100.00
21236;BME280;10775;42.678;26.324;2024-03-23T03:02:21;98802.22;;;4.75;100.00
21236;BME280;10775;42.678;26.324;2024-03-23T03:04:47;98803.09;;;4.80;100.00
21236;BME280;10775;42.678;26.324;2024-03-23T03:07:13;98803.13;;;4.85;100.00
21236;BME280;10775;42.678;26.324;2024-03-23T03:09:39;98801.38;;;4.73;98.87
21236;BME280;10775;42.678;26.324;2024-03-23T03:12:05;98799.56;;;4.65;96.58
21236;BME280;10775;42.678;26.324;2024-03-23T03:14:31;98796.91;;;4.51;97.29
21236;BME280;10775;42.678;26.324;2024-03-23T03:16:56;98796.91;;;4.48;100.00
21236;BME280;10775;42.678;26.324;2024-03-23T03:19:22;98799.50;;;4.48;100.00
21236;BME280;10775;42.678;26.324;2024-03-23T03:21:47;98796.84;;;4.45;99.86
21236;BME280;10775;42.678;26.324;2024-03-23T03:24:13;98807.16;;;4.34;96.46
21236;BME280;10775;42.678;26.324;2024-03-23T03:26:39;98797.53;;;4.16;95.18
21236;BME280;10775;42.678;26.324;2024-03-23T03:29:04;98798.44;;;4.24;100.00
21236;BME280;10775;42.678;26.324;2024-03-23T03:31:29;98792.47;;;4.34;100.00
21236;BME280;10775;42.678;26.324;2024-03-23T03:33:55;98795.09;;;4.39;100.00
21236;BME280;10775;42.678;26.324;2024-03-23T03:36:20;98798.59;;;4.46;100.00
21236;BME280;10775;42.678;26.324;2024-03-23T03:38:46;98796.06;;;4.50;100.00
21236;BME280;10775;42.678;26.324;2024-03-23T03:41:11;98789.06;;;4.39;100.00
21236;BME280;10775;42.678;26.324;2024-03-23T03:43:37;98797.63;;;4.31;100.00
21236;BME280;10775;42.678;26.324;2024-03-23T03:46:03;98799.34;;;4.28;100.00
21236;BME280;10775;42.678;26.324;2024-03-23T03:48:29;98791.53;;;4.20;100.00
21236;BME280;10775;42.678;26.324;2024-03-23T03:50:54;98795.84;;;4.24;100.00
21236;BME280;10775;42.678;26.324;2024-03-23T03:53:20;98800.19;;;4.22;100.00
21236;BME280;10775;42.678;26.324;2024-03-23T03:55:46;98803.53;;;4.13;100.00
21236;BME280;10775;42.678;26.324;2024-03-23T03:58:11;98800.16;;;4.21;100.00
21236;BME280;10775;42.678;26.324;2024-03-23T04:00:37;98802.66;;;4.10;98.59
21236;BME280;10775;42.678;26.324;2024-03-23T04:03:02;98800.19;;;4.22;100.00
21236;BME280;10775;42.678;26.324;2024-03-23T04:05:28;98802.84;;;4.33;100.00
21236;BME280;10775;42.678;26.324;2024-03-23T04:07:54;98796.84;;;4.40;100.00
21236;BME280;10775;42.678;26.324;2024-03-23T04:10:20;98797.72;;;4.41;100.00
21236;BME280;10775;42.678;26.324;2024-03-23T04:12:47;98797.66;;;4.34;100.00
21236;BME280;10775;42.678;26.324;2024-03-23T04:15:12;98797.66;;;4.30;100.00
21236;BME280;10775;42.678;26.324;2024-03-23T04:17:38;98792.34;;;4.16;100.00
21236;BME280;10775;42.678;26.324;2024-03-23T04:20:04;98793.28;;;4.26;100.00
21236;BME280;10775;42.678;26.324;2024-03-23T04:22:34;98801.94;;;4.28;100.00
21236;BME280;10775;42.678;26.324;2024-03-23T04:24:59;98795.03;;;4.31;100.00
21236;BME280;10775;42.678;26.324;2024-03-23T04:27:25;98802.84;;;4.33;100.00
21236;BME280;10775;42.678;26.324;2024-03-23T04:29:51;98796.81;;;4.37;100.00
21236;BME280;10775;42.678;26.324;2024-03-23T04:32:17;98800.34;;;4.48;100.00
21236;BME280;10775;42.678;26.324;2024-03-23T04:34:43;98803.75;;;4.41;100.00
21236;BME280;10775;42.678;26.324;2024-03-23T04:37:09;98808.84;;;4.29;100.00
21236;BME280;10775;42.678;26.324;2024-03-23T04:39:36;98801.81;;;4.09;96.74
21236;BME280;10775;42.678;26.324;2024-03-23T04:42:02;98808.75;;;4.18;100.00
21236;BME280;10775;42.678;26.324;2024-03-23T04:44:28;98800.25;;;4.36;100.00
21236;BME280;10775;42.678;26.324;2024-03-23T04:46:54;98801.16;;;4.38;100.00
21236;BME280;10775;42.678;26.324;2024-03-23T04:49:19;98794.19;;;4.34;97.41
21236;BME280;10775;42.678;26.324;2024-03-23T04:51:44;98793.44;;;4.46;100.00
21236;BME280;10775;42.678;26.324;2024-03-23T04:54:14;98799.53;;;4.57;100.00
21236;BME280;10775;42.678;26.324;2024-03-23T04:56:40;98793.56;;;4.66;100.00
21236;BME280;10775;42.678;26.324;2024-03-23T04:59:06;98797.03;;;4.75;100.00
21236;BME280;10775;42.678;26.324;2024-03-23T05:01:32;98803.09;;;4.77;100.00
21236;BME280;10775;42.678;26.324;2024-03-23T05:03:58;98799.66;;;4.82;100.00
21236;BME280;10775;42.678;26.324;2024-03-23T05:06:24;98795.38;;;4.88;100.00
21236;BME280;10775;42.678;26.324;2024-03-23T05:08:50;98794.50;;;4.88;96.54
21236;BME280;10775;42.678;26.324;2024-03-23T05:11:16;98795.38;;;4.88;97.49
21236;BME280;10775;42.678;26.324;2024-03-23T05:13:42;98802.38;;;5.05;99.90
21236;BME280;10775;42.678;26.324;2024-03-23T05:16:07;98797.22;;;5.09;98.43
21236;BME280;10775;42.678;26.324;2024-03-23T05:18:34;98803.19;;;5.00;95.38
21236;BME280;10775;42.678;26.324;2024-03-23T05:21:00;98806.66;;;4.96;93.01
21236;BME280;10775;42.678;26.324;2024-03-23T05:23:25;98798.03;;;5.00;94.33
21236;BME280;10775;42.678;26.324;2024-03-23T05:25:51;98805.00;;;5.17;98.13
21236;BME280;10775;42.678;26.324;2024-03-23T05:28:17;98802.47;;;5.29;99.56
21236;BME280;10775;42.678;26.324;2024-03-23T05:30:43;98810.28;;;5.40;99.65
21236;BME280;10775;42.678;26.324;2024-03-23T05:33:09;98807.69;;;5.44;94.90
21236;BME280;10775;42.678;26.324;2024-03-23T05:35:34;98806.00;;;5.57;98.67
21236;BME280;10775;42.678;26.324;2024-03-23T05:37:59;98818.09;;;5.69;98.65
21236;BME280;10775;42.678;26.324;2024-03-23T05:40:26;98814.66;;;5.76;98.76
21236;BME280;10775;42.678;26.324;2024-03-23T05:42:52;98819.00;;;5.85;97.79
21236;BME280;10775;42.678;26.324;2024-03-23T05:45:23;98818.16;;;5.89;97.80
21236;BME280;10775;42.678;26.324;2024-03-23T05:47:49;98822.47;;;5.90;95.89
21236;BME280;10775;42.678;26.324;2024-03-23T05:50:14;98824.22;;;5.97;96.18
21236;BME280;10775;42.678;26.324;2024-03-23T05:52:40;98820.78;;;6.03;94.30
21236;BME280;10775;42.678;26.324;2024-03-23T05:55:06;98824.25;;;6.09;95.03
21236;BME280;10775;42.678;26.324;2024-03-23T05:57:32;98826.81;;;6.00;91.22
21236;BME280;10775;42.678;26.324;2024-03-23T05:59:57;98825.09;;;5.96;93.26
21236;BME280;10775;42.678;26.324;2024-03-23T06:02:24;98831.19;;;5.98;89.94
21236;BME280;10775;42.678;26.324;2024-03-23T06:04:49;98820.78;;;6.01;90.51
21236;BME280;10775;42.678;26.324;2024-03-23T06:07:15;98828.50;;;5.77;83.09
21236;BME280;10775;42.678;26.324;2024-03-23T06:09:41;98825.88;;;5.58;85.47
21236;BME280;10775;42.678;26.324;2024-03-23T06:12:07;98827.63;;;5.72;87.44
21236;BME280;10775;42.678;26.324;2024-03-23T06:14:33;98829.38;;;5.85;88.39
21236;BME280;10775;42.678;26.324;2024-03-23T06:16:59;98828.53;;;5.89;87.82
21236;BME280;10775;42.678;26.324;2024-03-23T06:19:25;98827.72;;;6.04;91.58
21236;BME280;10775;42.678;26.324;2024-03-23T06:21:55;98820.78;;;6.17;91.58
21236;BME280;10775;42.678;26.324;2024-03-23T06:24:21;98823.38;;;6.01;84.57
21236;BME280;10775;42.678;26.324;2024-03-23T06:26:47;98819.91;;;6.07;87.95
21236;BME280;10775;42.678;26.324;2024-03-23T06:29:13;98825.13;;;6.16;86.06
21236;BME280;10775;42.678;26.324;2024-03-23T06:31:38;98825.09;;;6.07;85.07
21236;BME280;10775;42.678;26.324;2024-03-23T06:34:04;98825.09;;;6.13;88.92
21236;BME280;10775;42.678;26.324;2024-03-23T06:36:29;98824.25;;;6.34;88.06
21236;BME280;10775;42.678;26.324;2024-03-23T06:38:56;98819.91;;;6.50;87.50
21236;BME280;10775;42.678;26.324;2024-03-23T06:41:22;98821.63;;;6.57;85.75
21236;BME280;10775;42.678;26.324;2024-03-23T06:43:48;98826.78;;;6.62;85.61
21236;BME280;10775;42.678;26.324;2024-03-23T06:46:13;98823.34;;;6.70;86.41
21236;BME280;10775;42.678;26.324;2024-03-23T06:48:39;98823.31;;;6.69;84.79
21236;BME280;10775;42.678;26.324;2024-03-23T06:51:04;98826.78;;;6.80;85.74
21236;BME280;10775;42.678;26.324;2024-03-23T06:53:30;98828.47;;;6.87;84.12
21236;BME280;10775;42.678;26.324;2024-03-23T06:55:55;98829.34;;;6.95;83.36
21236;BME280;10775;42.678;26.324;2024-03-23T06:58:24;98833.63;;;7.09;85.26
21236;BME280;10775;42.678;26.324;2024-03-23T07:00:50;98841.41;;;7.12;82.81
21236;BME280;10775;42.678;26.324;2024-03-23T07:03:18;98827.84;;;8.13;86.49
21236;BME280;10775;42.678;26.324;2024-03-23T07:05:44;98818.34;;;10.26;77.71
21236;BME280;10775;42.678;26.324;2024-03-23T07:08:11;98815.97;;;11.92;68.50
21236;BME280;10775;42.678;26.324;2024-03-23T07:10:39;98811.06;;;12.84;61.90
21236;BME280;10775;42.678;26.324;2024-03-23T07:13:05;98814.50;;;13.48;58.58
21236;BME280;10775;42.678;26.324;2024-03-23T07:15:30;98806.94;;;13.96;56.28
21236;BME280;10775;42.678;26.324;2024-03-23T07:17:56;98801.16;;;13.56;52.48
21236;BME280;10775;42.678;26.324;2024-03-23T07:20:21;98808.59;;;12.44;54.21
21236;BME280;10775;42.678;26.324;2024-03-23T07:22:47;98800.75;;;12.76;56.04
21236;BME280;10775;42.678;26.324;2024-03-23T07:25:13;98794.94;;;12.32;54.15
21236;BME280;10775;42.678;26.324;2024-03-23T07:27:38;98786.19;;;11.96;54.74
21236;BME280;10775;42.678;26.324;2024-03-23T07:30:04;98788.91;;;12.61;56.30
21236;BME280;10775;42.678;26.324;2024-03-23T07:32:30;98781.81;;;13.59;55.04
21236;BME280;10775;42.678;26.324;2024-03-23T07:34:55;98784.56;;;15.12;50.99
21236;BME280;10775;42.678;26.324;2024-03-23T07:37:21;98775.13;;;15.77;47.84
21236;BME280;10775;42.678;26.324;2024-03-23T07:39:46;98776.28;;;15.69;47.76
21236;BME280;10775;42.678;26.324;2024-03-23T07:42:12;98764.94;;;16.33;46.88
21236;BME280;10775;42.678;26.324;2024-03-23T07:44:37;98772.38;;;16.23;45.39
21236;BME280;10775;42.678;26.324;2024-03-23T07:47:03;98776.34;;;15.21;47.17
21236;BME280;10775;42.678;26.324;2024-03-23T07:49:28;98775.75;;;14.38;48.49
21236;BME280;10775;42.678;26.324;2024-03-23T07:51:54;98772.69;;;14.25;49.78
21236;BME280;10775;42.678;26.324;2024-03-23T07:54:19;98772.81;;;14.21;49.76
21236;BME280;10775;42.678;26.324;2024-03-23T07:56:45;98766.69;;;14.47;49.98
21236;BME280;10775;42.678;26.324;2024-03-23T07:59:10;98773.59;;;15.01;48.70
21236;BME280;10775;42.678;26.324;2024-03-23T08:01:36;98770.69;;;15.09;49.62
21236;BME280;10775;42.678;26.324;2024-03-23T08:04:02;98769.13;;;15.27;48.49
21236;BME280;10775;42.678;26.324;2024-03-23T08:06:27;98764.84;;;15.24;48.30
21236;BME280;10775;42.678;26.324;2024-03-23T08:08:55;98764.28;;;15.85;48.40
21236;BME280;10775;42.678;26.324;2024-03-23T08:11:31;98757.50;;;16.00;47.25
21236;BME280;10775;42.678;26.324;2024-03-23T08:13:57;98758.31;;;16.02;46.96
21236;BME280;10775;42.678;26.324;2024-03-23T08:16:23;98759.44;;;16.39;46.94
21236;BME280;10775;42.678;26.324;2024-03-23T08:18:51;98759.81;;;16.50;45.69
21236;BME280;10775;42.678;26.324;2024-03-23T08:21:18;98753.25;;;16.81;44.96
21236;BME280;10775;42.678;26.324;2024-03-23T08:23:43;98751.63;;;16.36;46.14
21236;BME280;10775;42.678;26.324;2024-03-23T08:26:11;98748.16;;;15.93;47.61
21236;BME280;10775;42.678;26.324;2024-03-23T08:28:37;98751.19;;;16.04;47.28
21236;BME280;10775;42.678;26.324;2024-03-23T08:31:10;98755.38;;;16.50;45.67
21236;BME280;10775;42.678;26.324;2024-03-23T08:33:36;98759.47;;;16.37;46.39
21236;BME280;10775;42.678;26.324;2024-03-23T08:36:07;98752.75;;;16.71;46.33
21236;BME280;10775;42.678;26.324;2024-03-23T08:38:33;98744.91;;;16.69;45.75
21236;BME280;10775;42.678;26.324;2024-03-23T08:41:08;98745.13;;;16.85;45.88
21236;BME280;10775;42.678;26.324;2024-03-23T08:43:39;98745.03;;;16.66;46.34
21236;BME280;10775;42.678;26.324;2024-03-23T08:46:12;98740.34;;;15.90;46.87
21236;BME280;10775;42.678;26.324;2024-03-23T08:48:40;98754.22;;;16.15;47.80
21236;BME280;10775;42.678;26.324;2024-03-23T08:51:07;98752.66;;;15.89;48.17
21236;BME280;10775;42.678;26.324;2024-03-23T08:53:33;98753.47;;;15.91;48.20
21236;BME280;10775;42.678;26.324;2024-03-23T08:55:59;98750.25;;;16.27;48.55
21236;BME280;10775;42.678;26.324;2024-03-23T08:58:27;98743.72;;;16.36;48.24
21236;BME280;10775;42.678;26.324;2024-03-23T09:00:54;98742.38;;;16.87;47.04
21236;BME280;10775;42.678;26.324;2024-03-23T09:03:25;98740.03;;;16.60;46.83
21236;BME280;10775;42.678;26.324;2024-03-23T09:05:51;98729.78;;;16.73;46.40
21236;BME280;10775;42.678;26.324;2024-03-23T09:08:17;98724.91;;;15.80;47.98
21236;BME280;10775;42.678;26.324;2024-03-23T09:10:43;98730.75;;;16.09;48.65
21236;BME280;10775;42.678;26.324;2024-03-23T09:13:09;98719.28;;;16.30;47.16
21236;BME280;10775;42.678;26.324;2024-03-23T09:15:35;98724.66;;;15.86;48.07
21236;BME280;10775;42.678;26.324;2024-03-23T09:18:01;98713.03;;;16.33;47.51
21236;BME280;10775;42.678;26.324;2024-03-23T09:20:26;98722.53;;;16.17;48.22
21236;BME280;10775;42.678;26.324;2024-03-23T09:22:52;98716.88;;;16.46;46.49
21236;BME280;10775;42.678;26.324;2024-03-23T09:25:17;98716.00;;;16.46;46.64
21236;BME280;10775;42.678;26.324;2024-03-23T09:27:46;98711.03;;;16.59;45.77
21236;BME280;10775;42.678;26.324;2024-03-23T09:30:12;98700.16;;;16.46;46.57
21236;BME280;10775;42.678;26.324;2024-03-23T09:32:37;98708.72;;;16.10;46.12
21236;BME280;10775;42.678;26.324;2024-03-23T09:35:03;98697.53;;;16.46;45.99
21236;BME280;10775;42.678;26.324;2024-03-23T09:37:28;98692.47;;;16.82;46.31
21236;BME280;10775;42.678;26.324;2024-03-23T09:39:54;98686.59;;;16.94;44.54
21236;BME280;10775;42.678;26.324;2024-03-23T09:42:19;98691.38;;;16.86;45.70
21236;BME280;10775;42.678;26.324;2024-03-23T09:44:45;98679.56;;;17.14;45.62
21236;BME280;10775;42.678;26.324;2024-03-23T09:47:12;98677.31;;;17.43;44.41
21236;BME280;10775;42.678;26.324;2024-03-23T09:49:38;98673.72;;;17.63;43.55
21236;BME280;10775;42.678;26.324;2024-03-23T09:52:03;98670.13;;;17.27;42.84
21236;BME280;10775;42.678;26.324;2024-03-23T09:54:29;98663.13;;;16.88;45.92
21236;BME280;10775;42.678;26.324;2024-03-23T09:56:55;98654.28;;;17.08;45.79
21236;BME280;10775;42.678;26.324;2024-03-23T09:59:20;98653.41;;;17.27;44.92
21236;BME280;10775;42.678;26.324;2024-03-23T10:01:46;98654.09;;;17.49;42.39
21236;BME280;10775;42.678;26.324;2024-03-23T10:04:38;98648.03;;;17.47;41.41
21236;BME280;10775;42.678;26.324;2024-03-23T10:07:20;98643.84;;;17.60;41.03
21236;BME280;10775;42.678;26.324;2024-03-23T10:09:47;98642.50;;;16.78;41.29
21236;BME280;10775;42.678;26.324;2024-03-23T10:12:16;98642.34;;;17.19;43.05
21236;BME280;10775;42.678;26.324;2024-03-23T10:14:41;98637.75;;;17.41;42.94
21236;BME280;10775;42.678;26.324;2024-03-23T10:17:18;98636.16;;;17.01;44.26
21236;BME280;10775;42.678;26.324;2024-03-23T10:22:14;98631.06;;;17.34;42.57
21236;BME280;10775;42.678;26.324;2024-03-23T10:24:41;98627.13;;;17.60;41.26
21236;BME280;10775;42.678;26.324;2024-03-23T10:27:06;98619.19;;;17.43;41.99
21236;BME280;10775;42.678;26.324;2024-03-23T10:29:32;98617.13;;;17.30;41.65
21236;BME280;10775;42.678;26.324;2024-03-23T10:32:10;98614.56;;;17.29;42.57
21236;BME280;10775;42.678;26.324;2024-03-23T10:34:37;98607.28;;;17.34;42.91
21236;BME280;10775;42.678;26.324;2024-03-23T10:37:03;98602.66;;;17.20;43.17
21236;BME280;10775;42.678;26.324;2024-03-23T10:39:39;98601.25;;;17.13;41.74
21236;BME280;10775;42.678;26.324;2024-03-23T10:42:07;98592.09;;;17.20;41.88
21236;BME280;10775;42.678;26.324;2024-03-23T10:44:40;98597.81;;;17.11;42.45
21236;BME280;10775;42.678;26.324;2024-03-23T10:47:05;98591.31;;;16.22;44.16
21236;BME280;10775;42.678;26.324;2024-03-23T10:49:35;98588.06;;;16.36;44.14
21236;BME280;10775;42.678;26.324;2024-03-23T10:52:05;98580.84;;;16.79;42.90
21236;BME280;10775;42.678;26.324;2024-03-23T10:54:32;98579.50;;;17.25;41.83
21236;BME280;10775;42.678;26.324;2024-03-23T10:57:07;98572.66;;;16.85;39.90
21236;BME280;10775;42.678;26.324;2024-03-23T10:59:35;98572.84;;;17.18;41.41
21236;BME280;10775;42.678;26.324;2024-03-23T11:02:02;98563.28;;;16.97;42.63
21236;BME280;10775;42.678;26.324;2024-03-23T11:04:33;98557.59;;;17.41;40.95
21236;BME280;10775;42.678;26.324;2024-03-23T11:06:59;98562.13;;;17.38;35.49
21236;BME280;10775;42.678;26.324;2024-03-23T11:09:43;98558.69;;;17.19;36.69
21236;BME280;10775;42.678;26.324;2024-03-23T11:14:56;98546.03;;;17.60;38.90
21236;BME280;10775;42.678;26.324;2024-03-23T11:17:23;98538.84;;;17.64;38.82
21236;BME280;10775;42.678;26.324;2024-03-23T11:19:58;98538.13;;;17.95;38.54
21236;BME280;10775;42.678;26.324;2024-03-23T11:22:46;98536.66;;;17.90;37.26
21236;BME280;10775;42.678;26.324;2024-03-23T11:25:25;98533.13;;;17.20;37.50
21236;BME280;10775;42.678;26.324;2024-03-23T11:27:52;98529.31;;;17.08;37.82
21236;BME280;10775;42.678;26.324;2024-03-23T11:30:23;98520.88;;;17.36;37.80
21236;BME280;10775;42.678;26.324;2024-03-23T11:32:53;98520.47;;;17.78;36.81
21236;BME280;10775;42.678;26.324;2024-03-23T11:35:25;98507.69;;;18.04;35.13
21236;BME280;10775;42.678;26.324;2024-03-23T11:38:14;98504.22;;;18.19;36.16
21236;BME280;10775;42.678;26.324;2024-03-23T11:40:43;98499.31;;;18.29;35.45
21236;BME280;10775;42.678;26.324;2024-03-23T11:43:13;98498.97;;;17.51;35.28
21236;BME280;10775;42.678;26.324;2024-03-23T11:48:11;98495.19;;;17.73;37.36
21236;BME280;10775;42.678;26.324;2024-03-23T11:50:42;98483.78;;;17.90;37.23
21236;BME280;10775;42.678;26.324;2024-03-23T11:53:08;98479.63;;;18.01;36.08
21236;BME280;10775;42.678;26.324;2024-03-23T11:58:12;98468.03;;;18.04;35.41
21236;BME280;10775;42.678;26.324;2024-03-23T12:00:38;98478.59;;;18.04;36.03
21236;BME280;10775;42.678;26.324;2024-03-23T12:03:05;98468.16;;;17.85;35.25
21236;BME280;10775;42.678;26.324;2024-03-23T12:05:31;98468.56;;;17.43;36.17
21236;BME280;10775;42.678;26.324;2024-03-23T12:08:22;98458.56;;;18.00;36.02
21236;BME280;10775;42.678;26.324;2024-03-23T12:10:53;98452.44;;;18.15;36.17
21236;BME280;10775;42.678;26.324;2024-03-23T12:13:19;98450.88;;;17.95;35.28
21236;BME280;10775;42.678;26.324;2024-03-23T12:15:45;98441.97;;;17.96;35.12
21236;BME280;10775;42.678;26.324;2024-03-23T12:18:11;98436.22;;;18.06;35.23
21236;BME280;10775;42.678;26.324;2024-03-23T12:20:38;98438.69;;;18.24;35.40
21236;BME280;10775;42.678;26.324;2024-03-23T12:23:21;98442.03;;;18.44;34.87
21236;BME280;10775;42.678;26.324;2024-03-23T12:25:48;98434.19;;;18.27;33.90
21236;BME280;10775;42.678;26.324;2024-03-23T12:28:14;98423.66;;;18.09;33.99
21236;BME280;10775;42.678;26.324;2024-03-23T12:30:39;98421.66;;;17.97;34.04
21236;BME280;10775;42.678;26.324;2024-03-23T12:33:05;98420.09;;;18.10;35.52
21236;BME280;10775;42.678;26.324;2024-03-23T12:35:31;98425.63;;;18.21;34.02
21236;BME280;10775;42.678;26.324;2024-03-23T12:37:57;98420.59;;;18.33;33.66
21236;BME280;10775;42.678;26.324;2024-03-23T12:40:23;98415.56;;;17.79;34.33
21236;BME280;10775;42.678;26.324;2024-03-23T12:42:48;98408.63;;;17.76;35.52
21236;BME280;10775;42.678;26.324;2024-03-23T12:45:13;98400.38;;;18.00;36.41
21236;BME280;10775;42.678;26.324;2024-03-23T12:47:39;98396.47;;;18.23;35.41
21236;BME280;10775;42.678;26.324;2024-03-23T12:50:04;98405.25;;;18.39;35.08
21236;BME280;10775;42.678;26.324;2024-03-23T12:52:31;98398.06;;;18.10;34.70
21236;BME280;10775;42.678;26.324;2024-03-23T12:54:57;98389.28;;;18.09;33.88
21236;BME280;10775;42.678;26.324;2024-03-23T12:57:26;98399.06;;;18.07;34.75
21236;BME280;10775;42.678;26.324;2024-03-23T12:59:52;98392.16;;;18.04;35.38
21236;BME280;10775;42.678;26.324;2024-03-23T13:02:21;98387.50;;;18.25;36.13
21236;BME280;10775;42.678;26.324;2024-03-23T13:04:49;98384.41;;;18.49;35.00
21236;BME280;10775;42.678;26.324;2024-03-23T13:07:15;98383.28;;;18.53;35.05
21236;BME280;10775;42.678;26.324;2024-03-23T13:09:40;98381.00;;;18.47;35.56
21236;BME280;10775;42.678;26.324;2024-03-23T13:12:06;98375.91;;;18.28;35.54
21236;BME280;10775;42.678;26.324;2024-03-23T13:14:32;98369.41;;;18.34;34.92
21236;BME280;10775;42.678;26.324;2024-03-23T13:16:57;98375.19;;;17.93;35.19
21236;BME280;10775;42.678;26.324;2024-03-23T13:19:22;98372.38;;;18.12;34.89
21236;BME280;10775;42.678;26.324;2024-03-23T13:21:55;98369.72;;;18.28;34.74
21236;BME280;10775;42.678;26.324;2024-03-23T13:24:26;98365.97;;;18.32;34.22
21236;BME280;10775;42.678;26.324;2024-03-23T13:26:53;98355.81;;;18.24;33.31
21236;BME280;10775;42.678;26.324;2024-03-23T13:29:19;98354.97;;;18.23;34.36
21236;BME280;10775;42.678;26.324;2024-03-23T13:31:48;98351.75;;;18.18;34.00
21236;BME280;10775;42.678;26.324;2024-03-23T13:34:15;98346.53;;;18.17;33.76
21236;BME280;10775;42.678;26.324;2024-03-23T13:36:49;98352.50;;;18.36;33.06
21236;BME280;10775;42.678;26.324;2024-03-23T13:39:15;98353.59;;;18.16;32.55
21236;BME280;10775;42.678;26.324;2024-03-23T13:41:42;98353.84;;;18.28;32.51
21236;BME280;10775;42.678;26.324;2024-03-23T13:44:09;98348.03;;;17.89;33.14
21236;BME280;10775;42.678;26.324;2024-03-23T13:46:38;98345.19;;;17.76;32.99
21236;BME280;10775;42.678;26.324;2024-03-23T13:49:04;98339.81;;;17.78;34.24
21236;BME280;10775;42.678;26.324;2024-03-23T13:51:30;98329.81;;;17.85;33.45
21236;BME280;10775;42.678;26.324;2024-03-23T13:53:56;98336.97;;;17.83;33.00
21236;BME280;10775;42.678;26.324;2024-03-23T13:56:25;98334.50;;;17.79;33.39